Time;durP1;ratioP1;P1;durP2;ratioP2;P2;SDS_P1;SDS_P2;PMS_P1;PMS_P2;Temp;Humidity;BMP_temperature;BMP_pressure;BME280_temperature;BME280_humidity;BME280_pressure;Samples;Min_cycle;Max_cycle;Signal;HPM_P1;HPM_P2
2023/02/20 00:00:39;;;;;;;;;;;;;;;;;;5071503;28;19912;-85
2023/02/20 00:03:05;;;;;;;;;;;;;;;;;;5056286;28;20004;-85
2023/02/20 00:05:30;;;;;;;;;;;;;;;;;;5054746;28;19967;-84
2023/02/20 00:07:56;;;;;;;;;;;;;;;;;;5088644;28;20440;-84
2023/02/20 00:10:23;;;;;;;;;;;;;;;;;;5055927;28;19917;-85
2023/02/20 00:12:48;;;;;;;;;;;;;;;;;;5056193;28;20008;-86
2023/02/20 00:15:14;;;;;;;;;;;;;;;;;;5055778;28;20012;-85
2023/02/20 00:17:41;;;;;;;;;;;;;;;;;;5056106;28;19916;-85
2023/02/20 00:20:07;;;;;;;;;;;;;;;;;;5056517;28;19971;-86
2023/02/20 00:22:32;;;;;;;;;;;;;;;;;;5055054;28;20364;-86
2023/02/20 00:24:57;;;;;;;;;;;;;;;;;;5055821;28;19913;-86
2023/02/20 00:27:23;;;;;;;;;;;;;;;;;;5055695;28;20405;-85
2023/02/20 00:29:48;;;;;;;;;;;;;;;;;;5071167;28;19917;-84
2023/02/20 00:32:14;;;;;;;;;;;;;;;;;;5053826;28;19912;-85
2023/02/20 00:34:39;;;;;;;;;;;;;;;;;;5062978;28;19924;-86
2023/02/20 00:37:05;;;;;;;;;;;;;;;;;;5085491;28;19979;-85
2023/02/20 00:39:30;;;;;;;;;;;;;;;;;;5075017;28;19956;-85
2023/02/20 00:41:56;;;;;;;;;;;;;;;;;;5087927;28;19917;-85
2023/02/20 00:44:22;;;;;;;;;;;;;;;;;;5055545;28;19921;-84
2023/02/20 00:46:47;;;;;;;;;;;;;;;;;;5055356;28;20356;-85
2023/02/20 00:49:13;;;;;;;;;;;;;;;;;;5055432;28;19975;-84
2023/02/20 00:51:38;;;;;;;;;;;;;;;;;;5055454;28;19921;-86
2023/02/20 00:54:04;;;;;;;;;;;;;;;;;;5055230;28;19944;-84
2023/02/20 00:56:29;;;;;;;;;;;;;;;;;;5087568;28;19928;-85
2023/02/20 00:58:54;;;;;;;;;;;;;;;;;;5070500;28;19964;-85
2023/02/20 01:01:21;;;;;;;;;;;;;;;;;;5070689;28;19917;-86
2023/02/20 01:03:46;;;;;;;;;;;;;;;;;;5055062;28;19924;-85
2023/02/20 01:06:12;;;;;;;;;;;;;;;;;;5053719;28;19917;-85
2023/02/20 01:08:37;;;;;;;;;;;;;;;;;;5053628;28;20044;-85
2023/02/20 01:11:03;;;;;;;;;;;;;;;;;;5054885;28;20099;-86
2023/02/20 01:13:28;;;;;;;;;;;;;;;;;;5070155;28;20284;-85
2023/02/20 01:15:54;;;;;;;;;;;;;;;;;;5053485;28;19921;-85
2023/02/20 01:18:19;;;;;;;;;;;;;;;;;;5054696;28;19916;-84
2023/02/20 01:20:44;;;;;;;;;;;;;;;;;;5054789;28;20384;-85
2023/02/20 01:23:10;;;;;;;;;;;;;;;;;;5069867;28;20015;-85
2023/02/20 01:25:35;;;;;;;;;;;;;;;;;;5070312;28;20441;-85
2023/02/20 01:28:01;;;;;;;;;;;;;;;;;;5053303;28;19921;-85
2023/02/20 01:30:26;;;;;;;;;;;;;;;;;;5054641;28;20044;-86
2023/02/20 01:32:52;;;;;;;;;;;;;;;;;;5054562;28;20443;-86
2023/02/20 01:35:17;;;;;;;;;;;;;;;;;;5053213;28;19917;-86
2023/02/20 01:37:43;;;;;;;;;;;;;;;;;;5054329;28;20003;-85
2023/02/20 01:40:13;;;;;;;;;;;;;;;;;;5069770;28;19916;-85
2023/02/20 01:42:38;;;;;;;;;;;;;;;;;;5054135;28;19924;-84
2023/02/20 01:45:14;;;;;;;;;;;;;;;;;;5054321;28;19917;-85
2023/02/20 01:47:39;;;;;;;;;;;;;;;;;;5052924;28;20014;-84
2023/02/20 01:50:06;;;;;;;;;;;;;;;;;;5054251;28;19959;-84
2023/02/20 01:52:33;;;;;;;;;;;;;;;;;;5054214;28;19917;-85
2023/02/20 01:55:04;;;;;;;;;;;;;;;;;;5069734;28;19917;-85
2023/02/20 01:57:31;;;;;;;;;;;;;;;;;;5054034;28;19938;-85
2023/02/20 01:59:59;;;;;;;;;;;;;;;;;;5052655;28;20372;-84
2023/02/20 02:02:27;;;;;;;;;;;;;;;;;;5069350;28;19921;-84
2023/02/20 02:04:52;;;;;;;;;;;;;;;;;;5054018;28;19956;-85
2023/02/20 02:07:18;;;;;;;;;;;;;;;;;;5069202;28;19998;-84
2023/02/20 02:09:50;;;;;;;;;;;;;;;;;;5069204;28;19923;-84
2023/02/20 02:12:15;;;;;;;;;;;;;;;;;;5053557;28;19928;-85
2023/02/20 02:14:41;;;;;;;;;;;;;;;;;;5054118;28;19917;-85
2023/02/20 02:17:13;;;;;;;;;;;;;;;;;;5054276;28;19916;-85
2023/02/20 02:19:38;;;;;;;;;;;;;;;;;;5054378;28;19916;-84
2023/02/20 02:25:41;;;;;;;;;;;;;;;;;;5081988;27;20380;-84
2023/02/20 02:28:24;;;;;;;;;;;;;;;;;;5086283;28;20292;-84
2023/02/20 02:31:13;;;;;;;;;;;;;;;;;;5070818;28;19959;-86
2023/02/20 02:33:41;;;;;;;;;;;;;;;;;;5070103;28;19986;-84
2023/02/20 02:36:10;;;;;;;;;;;;;;;;;;5069313;28;19916;-84
2023/02/20 02:38:44;;;;;;;;;;;;;;;;;;5069365;28;20003;-84
2023/02/20 02:41:17;;;;;;;;;;;;;;;;;;5070523;28;19974;-85
2023/02/20 02:44:01;;;;;;;;;;;;;;;;;;5070576;28;19963;-86
2023/02/20 02:46:29;;;;;;;;;;;;;;;;;;5069165;28;20350;-86
2023/02/20 02:49:03;;;;;;;;;;;;;;;;;;5069066;28;19917;-86
2023/02/20 02:51:31;;;;;;;;;;;;;;;;;;5070328;28;20011;-86
2023/02/20 02:54:07;;;;;;;;;;;;;;;;;;5070332;28;19962;-87
2023/02/20 02:56:33;;;;;;;;;;;;;;;;;;5070194;28;19921;-87
2023/02/20 02:58:59;;;;;;;;;;;;;;;;;;5070084;28;19956;-86
2023/02/20 03:01:24;;;;;;;;;;;;;;;;;;5070131;28;20363;-87
2023/02/20 03:03:52;;;;;;;;;;;;;;;;;;5069919;28;19927;-86
2023/02/20 03:06:22;;;;;;;;;;;;;;;;;;5069979;28;20372;-86
2023/02/20 03:08:56;;;;;;;;;;;;;;;;;;5052382;28;20023;-87
2023/02/20 03:11:22;;;;;;;;;;;;;;;;;;5069971;28;19920;-87
2023/02/20 03:16:59;;;;;;;;;;;;;;;;;;5070685;28;19966;-86
2023/02/20 03:19:27;;;;;;;;;;;;;;;;;;5068907;28;19997;-86
2023/02/20 03:21:54;;;;;;;;;;;;;;;;;;5069758;28;20373;-86
2023/02/20 03:24:21;;;;;;;;;;;;;;;;;;5080559;28;20351;-86
2023/02/20 03:26:47;;;;;;;;;;;;;;;;;;5089774;28;19917;-86
2023/02/20 03:29:15;;;;;;;;;;;;;;;;;;5102923;28;20019;-85
2023/02/20 03:31:43;;;;;;;;;;;;;;;;;;5113960;28;19927;-85
2023/02/20 03:45:22;;;;;;;;;;;;;;;;;;5076138;28;19924;-86
2023/02/20 03:47:49;;;;;;;;;;;;;;;;;;5075987;28;19969;-85
2023/02/20 03:50:15;;;;;;;;;;;;;;;;;;5041376;28;20303;-85
2023/02/20 03:52:40;;;;;;;;;;;;;;;;;;5075892;28;19920;-85
2023/02/20 03:55:08;;;;;;;;;;;;;;;;;;5075890;28;19921;-85
2023/02/20 03:57:35;;;;;;;;;;;;;;;;;;5075914;28;19920;-86
2023/02/20 04:00:08;;;;;;;;;;;;;;;;;;5075766;28;19920;-86
2023/02/20 04:02:40;;;;;;;;;;;;;;;;;;5070878;28;19916;-84
2023/02/20 04:05:08;;;;;;;;;;;;;;;;;;5057802;28;20011;-86
2023/02/20 04:07:36;;;;;;;;;;;;;;;;;;5057615;28;20007;-86
2023/02/20 04:10:03;;;;;;;;;;;;;;;;;;5050422;28;20372;-85
2023/02/20 04:12:30;;;;;;;;;;;;;;;;;;5055541;28;19923;-84
2023/02/20 04:14:57;;;;;;;;;;;;;;;;;;5054340;28;19917;-84
2023/02/20 04:17:29;;;;;;;;;;;;;;;;;;5062488;28;20022;-85
2023/02/20 04:19:54;;;;;;;;;;;;;;;;;;5075196;28;19966;-85
2023/02/20 04:22:24;;;;;;;;;;;;;;;;;;5057100;28;19959;-84
2023/02/20 04:24:53;;;;;;;;;;;;;;;;;;5074830;28;20054;-85
2023/02/20 04:27:19;;;;;;;;;;;;;;;;;;5057125;28;19916;-85
2023/02/20 04:29:45;;;;;;;;;;;;;;;;;;5074969;28;19924;-86
2023/02/20 04:32:10;;;;;;;;;;;;;;;;;;5044377;28;19967;-85
2023/02/20 04:34:36;;;;;;;;;;;;;;;;;;5033890;28;20273;-84
2023/02/20 04:37:10;;;;;;;;;;;;;;;;;;5035111;28;20011;-85
2023/02/20 04:39:35;;;;;;;;;;;;;;;;;;5017171;28;19964;-86
2023/02/20 04:42:01;;;;;;;;;;;;;;;;;;5034990;28;19917;-85
2023/02/20 04:44:35;;;;;;;;;;;;;;;;;;5049108;28;19917;-86
2023/02/20 04:47:03;;;;;;;;;;;;;;;;;;5050303;28;19923;-85
2023/02/20 04:49:28;;;;;;;;;;;;;;;;;;5074599;28;19918;-85
2023/02/20 04:51:54;;;;;;;;;;;;;;;;;;5074647;28;19917;-85
2023/02/20 04:54:19;;;;;;;;;;;;;;;;;;5074656;28;19974;-84
2023/02/20 04:56:45;;;;;;;;;;;;;;;;;;5074502;28;20376;-85
2023/02/20 04:59:11;;;;;;;;;;;;;;;;;;5074534;28;19921;-84
2023/02/20 05:01:37;;;;;;;;;;;;;;;;;;5090040;28;20288;-84
2023/02/20 05:04:02;;;;;;;;;;;;;;;;;;5074384;28;19916;-84
2023/02/20 05:06:27;;;;;;;;;;;;;;;;;;5074276;28;19917;-83
2023/02/20 05:08:53;;;;;;;;;;;;;;;;;;5070833;28;19916;-84
2023/02/20 05:11:18;;;;;;;;;;;;;;;;;;5056416;28;19955;-84
2023/02/20 05:13:44;;;;;;;;;;;;;;;;;;5074210;28;19917;-85
2023/02/20 05:16:09;;;;;;;;;;;;;;;;;;5074085;28;19978;-84
2023/02/20 05:18:35;;;;;;;;;;;;;;;;;;5056458;28;19920;-84
2023/02/20 05:23:47;;;;;;;;;;;;;;;;;;5074146;28;20012;-85
2023/02/20 05:26:16;;;;;;;;;;;;;;;;;;5056040;28;20364;-85
2023/02/20 05:28:42;;;;;;;;;;;;;;;;;;5056006;28;19929;-85
2023/02/20 05:31:07;;;;;;;;;;;;;;;;;;5073917;28;20352;-84
2023/02/20 05:33:33;;;;;;;;;;;;;;;;;;5073796;28;19918;-84
2023/02/20 05:35:58;;;;;;;;;;;;;;;;;;5073768;28;19923;-85
2023/02/20 05:38:24;;;;;;;;;;;;;;;;;;5073663;28;19923;-85
2023/02/20 05:40:49;;;;;;;;;;;;;;;;;;5073712;28;20020;-84
2023/02/20 05:43:15;;;;;;;;;;;;;;;;;;5055651;28;19939;-84
2023/02/20 05:45:41;;;;;;;;;;;;;;;;;;5073619;28;19920;-84
2023/02/20 05:48:06;;;;;;;;;;;;;;;;;;5073655;28;19917;-84
2023/02/20 05:50:31;;;;;;;;;;;;;;;;;;5073558;28;19923;-84
2023/02/20 05:52:57;;;;;;;;;;;;;;;;;;5055553;28;20309;-84
2023/02/20 05:55:22;;;;;;;;;;;;;;;;;;5055470;28;20383;-84
2023/02/20 05:57:48;;;;;;;;;;;;;;;;;;5055402;28;19920;-84
2023/02/20 06:00:13;;;;;;;;;;;;;;;;;;5073272;28;19927;-85
2023/02/20 06:02:39;;;;;;;;;;;;;;;;;;5055376;28;20376;-85
2023/02/20 06:05:06;;;;;;;;;;;;;;;;;;5073482;28;20022;-85
2023/02/20 06:07:31;;;;;;;;;;;;;;;;;;5073348;28;20351;-84
2023/02/20 06:09:57;;;;;;;;;;;;;;;;;;5073326;28;19963;-84
2023/02/20 06:12:22;;;;;;;;;;;;;;;;;;5055210;28;20007;-85
2023/02/20 06:14:47;;;;;;;;;;;;;;;;;;5073442;28;19923;-84
2023/02/20 06:17:13;;;;;;;;;;;;;;;;;;5073231;28;19922;-86
2023/02/20 06:19:38;;;;;;;;;;;;;;;;;;5055560;28;19917;-85
2023/02/20 06:22:04;;;;;;;;;;;;;;;;;;5073184;28;19917;-84
2023/02/20 06:24:29;;;;;;;;;;;;;;;;;;5072887;28;19924;-86
2023/02/20 06:26:55;;;;;;;;;;;;;;;;;;5055185;28;19952;-85
2023/02/20 06:29:20;;;;;;;;;;;;;;;;;;5073138;28;19925;-86
2023/02/20 06:31:46;;;;;;;;;;;;;;;;;;5073526;28;19924;-84
2023/02/20 06:34:12;;;;;;;;;;;;;;;;;;5073214;28;19921;-86
2023/02/20 06:36:38;;;;;;;;;;;;;;;;;;5073261;28;20379;-85
2023/02/20 06:39:04;;;;;;;;;;;;;;;;;;5073025;28;20287;-84
2023/02/20 06:41:30;;;;;;;;;;;;;;;;;;5073005;28;19920;-83
2023/02/20 06:43:55;;;;;;;;;;;;;;;;;;5073029;28;19931;-85
2023/02/20 06:46:24;;;;;;;;;;;;;;;;;;5055079;28;19921;-84
2023/02/20 06:48:51;;;;;;;;;;;;;;;;;;5072990;28;19962;-84
2023/02/20 06:51:21;;;;;;;;;;;;;;;;;;5072956;28;19921;-84
2023/02/20 06:53:48;;;;;;;;;;;;;;;;;;5054841;28;20322;-84
2023/02/20 06:56:17;;;;;;;;;;;;;;;;;;5072758;28;20371;-84
2023/02/20 06:58:43;;;;;;;;;;;;;;;;;;5072860;28;19924;-84
2023/02/20 07:01:08;;;;;;;;;;;;;;;;;;5072935;28;19982;-84
2023/02/20 07:03:33;;;;;;;;;;;;;;;;;;5054822;28;19916;-84
2023/02/20 07:05:59;;;;;;;;;;;;;;;;;;5072678;28;19917;-85
2023/02/20 07:08:24;;;;;;;;;;;;;;;;;;5054787;28;20019;-85
2023/02/20 07:10:50;;;;;;;;;;;;;;;;;;5056049;28;19974;-84
2023/02/20 07:13:15;;;;;;;;;;;;;;;;;;5076627;28;19917;-85
2023/02/20 07:15:41;;;;;;;;;;;;;;;;;;5059064;28;19948;-85
2023/02/20 07:18:06;;;;;;;;;;;;;;;;;;5058907;28;20360;-83
2023/02/20 07:20:31;;;;;;;;;;;;;;;;;;5076862;28;19966;-85
2023/02/20 07:22:57;;;;;;;;;;;;;;;;;;5076496;28;19916;-84
2023/02/20 07:25:22;;;;;;;;;;;;;;;;;;5058151;28;20352;-84
2023/02/20 07:27:48;;;;;;;;;;;;;;;;;;5076400;28;19917;-84
2023/02/20 07:30:13;;;;;;;;;;;;;;;;;;5076192;28;19917;-86
2023/02/20 07:32:38;;;;;;;;;;;;;;;;;;5078033;28;19936;-84
2023/02/20 07:35:04;;;;;;;;;;;;;;;;;;5098633;28;19905;-83
2023/02/20 07:37:29;;;;;;;;;;;;;;;;;;5081732;28;19929;-82
2023/02/20 07:39:55;;;;;;;;;;;;;;;;;;5082105;28;20364;-84
2023/02/20 07:42:20;;;;;;;;;;;;;;;;;;5076183;28;19974;-83
2023/02/20 07:44:47;;;;;;;;;;;;;;;;;;5075917;28;20042;-82
2023/02/20 07:47:13;;;;;;;;;;;;;;;;;;5075968;28;19923;-86
2023/02/20 07:49:38;;;;;;;;;;;;;;;;;;5076058;28;20015;-84
2023/02/20 07:52:03;;;;;;;;;;;;;;;;;;5075898;28;20356;-84
2023/02/20 07:54:29;;;;;;;;;;;;;;;;;;5075732;28;19923;-84
2023/02/20 07:56:54;;;;;;;;;;;;;;;;;;5075709;28;19917;-83
2023/02/20 07:59:20;;;;;;;;;;;;;;;;;;5058141;28;20011;-85
2023/02/20 08:01:45;;;;;;;;;;;;;;;;;;5057694;28;19955;-83
2023/02/20 08:04:11;;;;;;;;;;;;;;;;;;5057628;28;19920;-85
2023/02/20 08:06:36;;;;;;;;;;;;;;;;;;5075736;28;19923;-83
2023/02/20 08:09:02;;;;;;;;;;;;;;;;;;5075589;28;19921;-84
2023/02/20 08:11:27;;;;;;;;;;;;;;;;;;5075482;28;20002;-84
2023/02/20 08:13:54;;;;;;;;;;;;;;;;;;5075384;28;19926;-83
2023/02/20 08:16:20;;;;;;;;;;;;;;;;;;5075464;28;19916;-83
2023/02/20 08:18:45;;;;;;;;;;;;;;;;;;5075495;28;19917;-84
2023/02/20 08:21:11;;;;;;;;;;;;;;;;;;5075121;28;19917;-84
2023/02/20 08:23:36;;;;;;;;;;;;;;;;;;5075047;28;20425;-83
2023/02/20 08:26:03;;;;;;;;;;;;;;;;;;5075262;28;19951;-84
2023/02/20 08:28:28;;;;;;;;;;;;;;;;;;5075178;28;20382;-83
2023/02/20 08:30:53;;;;;;;;;;;;;;;;;;5075325;28;19924;-83
2023/02/20 08:33:19;;;;;;;;;;;;;;;;;;5075164;28;19928;-83
2023/02/20 08:35:47;;;;;;;;;;;;;;;;;;5075033;28;20376;-85
2023/02/20 08:38:41;;;;;;;;;;;;;;;;;;5090583;28;20405;-83
2023/02/20 08:41:08;;;;;;;;;;;;;;;;;;5052497;28;19924;-83
2023/02/20 08:43:34;;;;;;;;;;;;;;;;;;5056852;28;19916;-83
2023/02/20 08:46:00;;;;;;;;;;;;;;;;;;5074978;28;19928;-84
2023/02/20 08:48:25;;;;;;;;;;;;;;;;;;5090346;28;19913;-84
2023/02/20 08:50:51;;;;;;;;;;;;;;;;;;5074808;28;19924;-84
2023/02/20 08:53:16;;;;;;;;;;;;;;;;;;5074687;28;20012;-83
2023/02/20 08:55:42;;;;;;;;;;;;;;;;;;5074616;28;19916;-83
2023/02/20 08:58:08;;;;;;;;;;;;;;;;;;5074514;28;20021;-83
2023/02/20 09:00:33;;;;;;;;;;;;;;;;;;5074548;28;19913;-84
2023/02/20 09:02:59;;;;;;;;;;;;;;;;;;5074556;28;19916;-84
2023/02/20 09:05:24;;;;;;;;;;;;;;;;;;5074318;28;20261;-84
2023/02/20 09:07:50;;;;;;;;;;;;;;;;;;5074322;28;20269;-84
2023/02/20 09:10:17;;;;;;;;;;;;;;;;;;5074261;28;19938;-83
2023/02/20 09:12:42;;;;;;;;;;;;;;;;;;5056378;28;19955;-84
2023/02/20 09:15:08;;;;;;;;;;;;;;;;;;5074111;28;19924;-83
2023/02/20 09:17:34;;;;;;;;;;;;;;;;;;5074111;28;19923;-82
2023/02/20 09:19:59;;;;;;;;;;;;;;;;;;5074117;28;19921;-83
2023/02/20 09:22:25;;;;;;;;;;;;;;;;;;5074118;28;19921;-83
2023/02/20 09:24:51;;;;;;;;;;;;;;;;;;5073904;28;19931;-84
2023/02/20 09:27:17;;;;;;;;;;;;;;;;;;5073912;28;19920;-82
2023/02/20 09:29:43;;;;;;;;;;;;;;;;;;5074155;28;19974;-85
2023/02/20 09:32:09;;;;;;;;;;;;;;;;;;5055950;28;19920;-83
2023/02/20 09:34:34;;;;;;;;;;;;;;;;;;5073352;28;19916;-84
2023/02/20 09:37:00;;;;;;;;;;;;;;;;;;5089440;28;19920;-84
2023/02/20 09:39:25;;;;;;;;;;;;;;;;;;5073735;28;19916;-83
2023/02/20 09:42:03;;;;;;;;;;;;;;;;;;5073767;28;19917;-84
2023/02/20 09:44:40;;;;;;;;;;;;;;;;;;5073653;28;20378;-83
2023/02/20 09:47:26;;;;;;;;;;;;;;;;;;5073628;28;20360;-83
2023/02/20 09:49:52;;;;;;;;;;;;;;;;;;5065998;28;19966;-83
2023/02/20 09:52:18;;;;;;;;;;;;;;;;;;5073549;28;19921;-83
2023/02/20 09:54:48;;;;;;;;;;;;;;;;;;5073540;28;19912;-83
2023/02/20 09:57:15;;;;;;;;;;;;;;;;;;5073459;28;19923;-83
2023/02/20 09:59:47;;;;;;;;;;;;;;;;;;5055471;28;19926;-84
2023/02/20 10:02:30;;;;;;;;;;;;;;;;;;5073314;28;19917;-85
2023/02/20 10:05:01;;;;;;;;;;;;;;;;;;5073250;28;19925;-84
2023/02/20 10:07:26;;;;;;;;;;;;;;;;;;5073330;28;20420;-82
2023/02/20 10:09:52;;;;;;;;;;;;;;;;;;5073301;28;20012;-84
2023/02/20 10:12:36;;;;;;;;;;;;;;;;;;5055319;28;20007;-83
2023/02/20 10:15:24;;;;;;;;;;;;;;;;;;5073199;28;19923;-84
2023/02/20 10:18:08;;;;;;;;;;;;;;;;;;5073305;28;20358;-83
2023/02/20 10:20:48;;;;;;;;;;;;;;;;;;5055258;28;19916;-83
2023/02/20 10:23:17;;;;;;;;;;;;;;;;;;5072960;28;19917;-82
2023/02/20 10:25:45;;;;;;;;;;;;;;;;;;5073210;28;19924;-82
2023/02/20 10:28:17;;;;;;;;;;;;;;;;;;5073214;28;19924;-82
2023/02/20 10:30:46;;;;;;;;;;;;;;;;;;5055279;28;19916;-84
2023/02/20 10:33:21;;;;;;;;;;;;;;;;;;5073220;28;19917;-83
2023/02/20 10:35:49;;;;;;;;;;;;;;;;;;5073113;28;19924;-83
2023/02/20 10:38:17;;;;;;;;;;;;;;;;;;5073093;28;19916;-85
2023/02/20 10:40:46;;;;;;;;;;;;;;;;;;5073214;28;19924;-84
2023/02/20 10:43:34;;;;;;;;;;;;;;;;;;5088729;28;19970;-84
2023/02/20 10:46:04;;;;;;;;;;;;;;;;;;5090310;28;19923;-84
2023/02/20 10:48:32;;;;;;;;;;;;;;;;;;5077016;28;19961;-83
2023/02/20 10:51:00;;;;;;;;;;;;;;;;;;5077150;28;19921;-83
2023/02/20 10:53:30;;;;;;;;;;;;;;;;;;5076944;28;19958;-84
2023/02/20 10:56:14;;;;;;;;;;;;;;;;;;5077073;28;19963;-84
2023/02/20 10:58:43;;;;;;;;;;;;;;;;;;5076899;28;19928;-83
2023/02/20 11:01:10;;;;;;;;;;;;;;;;;;5058807;28;19916;-83
2023/02/20 11:03:52;;;;;;;;;;;;;;;;;;5076950;28;19923;-85
2023/02/20 11:06:20;;;;;;;;;;;;;;;;;;5077161;28;19943;-83
2023/02/20 11:08:46;;;;;;;;;;;;;;;;;;5076619;28;19920;-85
2023/02/20 11:11:23;;;;;;;;;;;;;;;;;;5076555;28;19917;-84
2023/02/20 11:13:48;;;;;;;;;;;;;;;;;;5092202;28;19916;-83
2023/02/20 11:16:20;;;;;;;;;;;;;;;;;;5080020;28;20016;-84
2023/02/20 11:18:46;;;;;;;;;;;;;;;;;;5094452;28;19958;-86
2023/02/20 11:21:32;;;;;;;;;;;;;;;;;;5071483;28;19916;-82
2023/02/20 11:23:59;;;;;;;;;;;;;;;;;;5078536;28;19921;-85
2023/02/20 11:26:29;;;;;;;;;;;;;;;;;;5063489;28;19916;-84
2023/02/20 11:29:10;;;;;;;;;;;;;;;;;;5076680;28;19918;-85
2023/02/20 11:31:35;;;;;;;;;;;;;;;;;;5058236;28;20386;-83
2023/02/20 11:34:03;;;;;;;;;;;;;;;;;;5076326;28;19916;-83
2023/02/20 11:36:33;;;;;;;;;;;;;;;;;;5058065;28;20006;-86
2023/02/20 11:39:00;;;;;;;;;;;;;;;;;;5076297;28;19912;-86
2023/02/20 11:41:25;;;;;;;;;;;;;;;;;;5076060;28;19923;-84
2023/02/20 11:44:05;;;;;;;;;;;;;;;;;;5075907;28;19916;-85
2023/02/20 11:46:31;;;;;;;;;;;;;;;;;;5076000;28;19920;-85
2023/02/20 11:48:58;;;;;;;;;;;;;;;;;;5075934;28;19916;-84
2023/02/20 11:51:44;;;;;;;;;;;;;;;;;;5057855;28;20421;-85
2023/02/20 11:54:13;;;;;;;;;;;;;;;;;;5075811;28;19962;-85
2023/02/20 11:56:52;;;;;;;;;;;;;;;;;;5075248;28;19931;-85
2023/02/20 11:59:37;;;;;;;;;;;;;;;;;;5091306;28;20011;-85
2023/02/20 12:02:29;;;;;;;;;;;;;;;;;;5075444;28;19928;-83
2023/02/20 12:05:03;;;;;;;;;;;;;;;;;;5073166;28;19916;-86
2023/02/20 12:07:32;;;;;;;;;;;;;;;;;;5057527;28;19928;-87
2023/02/20 12:10:00;;;;;;;;;;;;;;;;;;5091121;28;20318;-88
2023/02/20 12:12:27;;;;;;;;;;;;;;;;;;5057441;28;19937;-86
2023/02/20 12:14:53;;;;;;;;;;;;;;;;;;5075342;28;20314;-89
2023/02/20 12:17:24;;;;;;;;;;;;;;;;;;5075344;28;19917;-88
2023/02/20 12:19:50;;;;;;;;;;;;;;;;;;5075250;28;19989;-87
2023/02/20 12:22:21;;;;;;;;;;;;;;;;;;5057223;28;20371;-87
2023/02/20 12:24:50;;;;;;;;;;;;;;;;;;5075040;28;19970;-85
2023/02/20 12:27:18;;;;;;;;;;;;;;;;;;5075196;28;19916;-85
2023/02/20 12:29:55;;;;;;;;;;;;;;;;;;5075053;28;19975;-86
2023/02/20 12:32:39;;;;;;;;;;;;;;;;;;5057114;28;19924;-85
2023/02/20 12:35:14;;;;;;;;;;;;;;;;;;5074975;28;20003;-85
2023/02/20 12:37:39;;;;;;;;;;;;;;;;;;5074972;28;19916;-84
2023/02/20 12:40:23;;;;;;;;;;;;;;;;;;5074893;28;20014;-85
2023/02/20 12:42:49;;;;;;;;;;;;;;;;;;5057062;28;20007;-85
2023/02/20 12:45:20;;;;;;;;;;;;;;;;;;5055423;28;20350;-86
2023/02/20 12:47:46;;;;;;;;;;;;;;;;;;5051753;28;19947;-85
2023/02/20 12:50:18;;;;;;;;;;;;;;;;;;5025404;28;19939;-86
2023/02/20 12:53:06;;;;;;;;;;;;;;;;;;5034731;28;19940;-86
2023/02/20 12:55:34;;;;;;;;;;;;;;;;;;5019106;28;19920;-86
2023/02/20 12:58:18;;;;;;;;;;;;;;;;;;5042105;28;19917;-86
2023/02/20 13:00:49;;;;;;;;;;;;;;;;;;5044373;28;19913;-85
2023/02/20 13:03:17;;;;;;;;;;;;;;;;;;5039216;28;19917;-88
2023/02/20 13:05:44;;;;;;;;;;;;;;;;;;5053468;28;19920;-85
2023/02/20 13:08:30;;;;;;;;;;;;;;;;;;5053511;28;19970;-85
2023/02/20 13:11:04;;;;;;;;;;;;;;;;;;5054332;28;20015;-86
2023/02/20 13:13:37;;;;;;;;;;;;;;;;;;5054242;28;19917;-85
2023/02/20 13:16:08;;;;;;;;;;;;;;;;;;5052877;28;19921;-85
2023/02/20 13:18:34;;;;;;;;;;;;;;;;;;5050607;28;19917;-85
2023/02/20 13:21:05;;;;;;;;;;;;;;;;;;5038498;28;20377;-88
2023/02/20 13:23:34;;;;;;;;;;;;;;;;;;5033883;28;19921;-86
2023/02/20 13:26:00;;;;;;;;;;;;;;;;;;5032762;28;19923;-86
2023/02/20 13:28:33;;;;;;;;;;;;;;;;;;5032720;28;19917;-86
2023/02/20 13:31:07;;;;;;;;;;;;;;;;;;5033961;28;19951;-86
2023/02/20 13:33:35;;;;;;;;;;;;;;;;;;5033975;28;19986;-88
2023/02/20 13:36:00;;;;;;;;;;;;;;;;;;5033927;28;19921;-86
2023/02/20 13:38:26;;;;;;;;;;;;;;;;;;5033935;28;20296;-86
2023/02/20 13:40:55;;;;;;;;;;;;;;;;;;5032521;28;19921;-87
2023/02/20 13:43:28;;;;;;;;;;;;;;;;;;5032482;28;19925;-87
2023/02/20 13:45:59;;;;;;;;;;;;;;;;;;5015996;28;20023;-85
2023/02/20 13:48:28;;;;;;;;;;;;;;;;;;5033641;28;19921;-87
2023/02/20 13:51:12;;;;;;;;;;;;;;;;;;5032398;28;20012;-88
2023/02/20 13:53:37;;;;;;;;;;;;;;;;;;5032304;28;19917;-85
2023/02/20 13:56:03;;;;;;;;;;;;;;;;;;5032045;28;19963;-87
2023/02/20 13:58:28;;;;;;;;;;;;;;;;;;5033526;28;19939;-85
2023/02/20 14:00:54;;;;;;;;;;;;;;;;;;5032333;28;19917;-86
2023/02/20 14:03:27;;;;;;;;;;;;;;;;;;5033767;28;19918;-88
2023/02/20 14:06:04;;;;;;;;;;;;;;;;;;5033454;28;19924;-88
2023/02/20 14:08:29;;;;;;;;;;;;;;;;;;5032015;28;20292;-87
2023/02/20 14:10:55;;;;;;;;;;;;;;;;;;5032207;28;19917;-85
2023/02/20 14:13:21;;;;;;;;;;;;;;;;;;5032123;28;19921;-85
2023/02/20 14:15:54;;;;;;;;;;;;;;;;;;5032041;28;19925;-86
2023/02/20 14:18:23;;;;;;;;;;;;;;;;;;5033320;28;19917;-85
2023/02/20 14:20:50;;;;;;;;;;;;;;;;;;5015332;28;19925;-86
2023/02/20 14:23:34;;;;;;;;;;;;;;;;;;5031626;28;20335;-85
2023/02/20 14:26:17;;;;;;;;;;;;;;;;;;5031946;28;19917;-85
2023/02/20 14:28:44;;;;;;;;;;;;;;;;;;5033199;28;19921;-87
2023/02/20 14:31:09;;;;;;;;;;;;;;;;;;5031794;28;20404;-86
2023/02/20 14:33:35;;;;;;;;;;;;;;;;;;5031832;28;19917;-85
2023/02/20 14:36:03;;;;;;;;;;;;;;;;;;5033144;28;19925;-84
2023/02/20 14:38:33;;;;;;;;;;;;;;;;;;5032230;28;20281;-85
2023/02/20 14:40:58;;;;;;;;;;;;;;;;;;5031933;28;20366;-85
2023/02/20 14:43:26;;;;;;;;;;;;;;;;;;5033159;28;20007;-86
2023/02/20 14:46:05;;;;;;;;;;;;;;;;;;5033478;28;19917;-86
2023/02/20 14:48:37;;;;;;;;;;;;;;;;;;5031972;28;19972;-85
2023/02/20 14:51:13;;;;;;;;;;;;;;;;;;5033050;28;20004;-84
2023/02/20 14:53:39;;;;;;;;;;;;;;;;;;5033008;28;20412;-86
2023/02/20 14:56:16;;;;;;;;;;;;;;;;;;5033113;28;20021;-85
2023/02/20 14:58:41;;;;;;;;;;;;;;;;;;5040129;28;19921;-86
2023/02/20 15:01:17;;;;;;;;;;;;;;;;;;5050410;28;19921;-84
2023/02/20 15:03:53;;;;;;;;;;;;;;;;;;5035805;28;19917;-84
2023/02/20 15:06:21;;;;;;;;;;;;;;;;;;5035334;28;19917;-88
2023/02/20 15:08:46;;;;;;;;;;;;;;;;;;5031860;28;19917;-85
2023/02/20 15:11:13;;;;;;;;;;;;;;;;;;5031608;28;19924;-87
2023/02/20 15:13:41;;;;;;;;;;;;;;;;;;5032834;28;19918;-86
2023/02/20 15:16:11;;;;;;;;;;;;;;;;;;5031575;28;19917;-88
2023/02/20 15:18:38;;;;;;;;;;;;;;;;;;5032794;28;19917;-88
2023/02/20 15:21:04;;;;;;;;;;;;;;;;;;5032779;28;20274;-85
2023/02/20 15:23:32;;;;;;;;;;;;;;;;;;5031262;28;19921;-84
2023/02/20 15:25:58;;;;;;;;;;;;;;;;;;5033355;28;20390;-82
2023/02/20 15:28:29;;;;;;;;;;;;;;;;;;5031446;28;19921;-84
2023/02/20 15:31:07;;;;;;;;;;;;;;;;;;5032902;28;19925;-85
2023/02/20 15:33:37;;;;;;;;;;;;;;;;;;5035019;28;19917;-85
2023/02/20 15:36:03;;;;;;;;;;;;;;;;;;5034898;28;20343;-84
2023/02/20 15:38:29;;;;;;;;;;;;;;;;;;5034844;28;19975;-83
2023/02/20 15:40:57;;;;;;;;;;;;;;;;;;5034824;28;19917;-84
2023/02/20 15:43:22;;;;;;;;;;;;;;;;;;5036114;28;19921;-84
2023/02/20 15:45:48;;;;;;;;;;;;;;;;;;5036026;28;20273;-83
2023/02/20 15:48:14;;;;;;;;;;;;;;;;;;5034694;28;19921;-86
2023/02/20 15:50:40;;;;;;;;;;;;;;;;;;5034626;28;19917;-85
2023/02/20 15:53:07;;;;;;;;;;;;;;;;;;5035981;28;19924;-84
2023/02/20 15:55:33;;;;;;;;;;;;;;;;;;5034553;28;19937;-85
2023/02/20 15:57:59;;;;;;;;;;;;;;;;;;5034531;28;19917;-86
2023/02/20 16:00:30;;;;;;;;;;;;;;;;;;5034413;28;19924;-87
2023/02/20 16:02:55;;;;;;;;;;;;;;;;;;5035746;28;19917;-86
2023/02/20 16:05:21;;;;;;;;;;;;;;;;;;5035528;28;20329;-86
2023/02/20 16:07:46;;;;;;;;;;;;;;;;;;5035593;28;19921;-86
2023/02/20 16:10:14;;;;;;;;;;;;;;;;;;5035622;28;19923;-85
2023/02/20 16:12:40;;;;;;;;;;;;;;;;;;5034480;28;19939;-85
2023/02/20 16:15:06;;;;;;;;;;;;;;;;;;5035402;28;20376;-85
2023/02/20 16:17:33;;;;;;;;;;;;;;;;;;5034225;28;20012;-85
2023/02/20 16:19:58;;;;;;;;;;;;;;;;;;5035253;28;20356;-85
2023/02/20 16:22:24;;;;;;;;;;;;;;;;;;5034316;28;19995;-86
2023/02/20 16:24:49;;;;;;;;;;;;;;;;;;5033724;28;20016;-85
2023/02/20 16:27:23;;;;;;;;;;;;;;;;;;5034020;28;19967;-87
2023/02/20 16:29:49;;;;;;;;;;;;;;;;;;5035366;28;19996;-85
2023/02/20 16:32:16;;;;;;;;;;;;;;;;;;5035021;28;20365;-86
2023/02/20 16:34:42;;;;;;;;;;;;;;;;;;5035247;28;19917;-85
2023/02/20 16:37:09;;;;;;;;;;;;;;;;;;5034943;28;19917;-84
2023/02/20 16:39:34;;;;;;;;;;;;;;;;;;5035074;28;19917;-87
2023/02/20 16:42:02;;;;;;;;;;;;;;;;;;5035056;28;19928;-84
2023/02/20 16:44:39;;;;;;;;;;;;;;;;;;5034860;28;19979;-85
2023/02/20 16:47:04;;;;;;;;;;;;;;;;;;5034956;28;20415;-85
2023/02/20 16:49:35;;;;;;;;;;;;;;;;;;5034828;28;19913;-85
2023/02/20 16:52:08;;;;;;;;;;;;;;;;;;5034844;28;19921;-84
2023/02/20 16:54:33;;;;;;;;;;;;;;;;;;5033528;28;19944;-84
2023/02/20 16:56:59;;;;;;;;;;;;;;;;;;5034749;28;20347;-86
2023/02/20 16:59:24;;;;;;;;;;;;;;;;;;5033394;28;19919;-85
2023/02/20 17:01:50;;;;;;;;;;;;;;;;;;5033324;28;19921;-85
2023/02/20 17:04:16;;;;;;;;;;;;;;;;;;5034501;28;19918;-86
2023/02/20 17:06:42;;;;;;;;;;;;;;;;;;5033182;28;19929;-86
2023/02/20 17:09:07;;;;;;;;;;;;;;;;;;5033156;28;20052;-85
2023/02/20 17:11:32;;;;;;;;;;;;;;;;;;5016485;28;19921;-86
2023/02/20 17:13:58;;;;;;;;;;;;;;;;;;5032986;28;19921;-86